sensor_id;sensor_type;location;lat;lon;timestamp;P1;durP1;ratioP1;P2;durP2;ratioP2
40675;SDS011;26359;48.750;9.314;2023-03-14T00:00:12;1.02;;;0.90;;
40675;SDS011;26359;48.750;9.314;2023-03-14T00:02:40;1.55;;;1.45;;
40675;SDS011;26359;48.750;9.314;2023-03-14T00:05:05;3.63;;;1.65;;
40675;SDS011;26359;48.750;9.314;2023-03-14T00:07:36;1.70;;;1.60;;
40675;SDS011;26359;48.750;9.314;2023-03-14T00:10:04;1.67;;;1.55;;
40675;SDS011;26359;48.750;9.314;2023-03-14T00:12:31;4.85;;;1.65;;
40675;SDS011;26359;48.750;9.314;2023-03-14T00:14:57;1.35;;;1.00;;
40675;SDS011;26359;48.750;9.314;2023-03-14T00:17:24;1.02;;;0.75;;
40675;SDS011;26359;48.750;9.314;2023-03-14T00:19:52;0.73;;;0.65;;
40675;SDS011;26359;48.750;9.314;2023-03-14T00:22:19;0.75;;;0.70;;
40675;SDS011;26359;48.750;9.314;2023-03-14T00:24:45;0.73;;;0.68;;
40675;SDS011;26359;48.750;9.314;2023-03-14T00:27:11;0.80;;;0.80;;
40675;SDS011;26359;48.750;9.314;2023-03-14T00:29:36;0.80;;;0.80;;
40675;SDS011;26359;48.750;9.314;2023-03-14T00:32:02;0.90;;;0.90;;
40675;SDS011;26359;48.750;9.314;2023-03-14T00:34:31;1.30;;;1.20;;
40675;SDS011;26359;48.750;9.314;2023-03-14T00:36:58;2.60;;;2.50;;
40675;SDS011;26359;48.750;9.314;2023-03-14T00:39:24;2.00;;;1.90;;
40675;SDS011;26359;48.750;9.314;2023-03-14T00:41:49;1.60;;;1.50;;
40675;SDS011;26359;48.750;9.314;2023-03-14T00:44:15;2.28;;;2.17;;
40675;SDS011;26359;48.750;9.314;2023-03-14T00:46:40;1.17;;;1.17;;
40675;SDS011;26359;48.750;9.314;2023-03-14T00:49:06;1.50;;;1.38;;
40675;SDS011;26359;48.750;9.314;2023-03-14T00:51:31;1.05;;;1.05;;
40675;SDS011;26359;48.750;9.314;2023-03-14T00:53:57;1.13;;;1.00;;
40675;SDS011;26359;48.750;9.314;2023-03-14T00:56:22;1.25;;;1.15;;
40675;SDS011;26359;48.750;9.314;2023-03-14T00:58:48;1.85;;;1.75;;
40675;SDS011;26359;48.750;9.314;2023-03-14T01:01:14;2.42;;;2.33;;
40675;SDS011;26359;48.750;9.314;2023-03-14T01:03:42;1.88;;;1.10;;
40675;SDS011;26359;48.750;9.314;2023-03-14T01:06:12;1.52;;;1.25;;
40675;SDS011;26359;48.750;9.314;2023-03-14T01:08:42;2.45;;;1.80;;
40675;SDS011;26359;48.750;9.314;2023-03-14T01:11:09;1.50;;;1.50;;
40675;SDS011;26359;48.750;9.314;2023-03-14T01:13:37;1.85;;;1.75;;
40675;SDS011;26359;48.750;9.314;2023-03-14T01:16:03;2.40;;;2.30;;
40675;SDS011;26359;48.750;9.314;2023-03-14T01:18:31;1.45;;;1.35;;
40675;SDS011;26359;48.750;9.314;2023-03-14T01:20:57;1.98;;;1.85;;
40675;SDS011;26359;48.750;9.314;2023-03-14T01:23:23;2.15;;;2.05;;
40675;SDS011;26359;48.750;9.314;2023-03-14T01:25:49;1.23;;;1.17;;
40675;SDS011;26359;48.750;9.314;2023-03-14T01:28:14;2.03;;;1.92;;
40675;SDS011;26359;48.750;9.314;2023-03-14T01:30:41;1.92;;;1.83;;
40675;SDS011;26359;48.750;9.314;2023-03-14T01:33:06;1.63;;;1.50;;
40675;SDS011;26359;48.750;9.314;2023-03-14T01:35:32;1.95;;;1.85;;
40675;SDS011;26359;48.750;9.314;2023-03-14T01:37:58;1.90;;;1.80;;
40675;SDS011;26359;48.750;9.314;2023-03-14T01:40:23;2.22;;;2.13;;
40675;SDS011;26359;48.750;9.314;2023-03-14T01:42:55;1.90;;;1.80;;
40675;SDS011;26359;48.750;9.314;2023-03-14T01:48:25;2.22;;;2.13;;
40675;SDS011;26359;48.750;9.314;2023-03-14T01:50:56;1.90;;;1.80;;
40675;SDS011;26359;48.750;9.314;2023-03-14T01:53:24;2.63;;;2.53;;
40675;SDS011;26359;48.750;9.314;2023-03-14T01:55:50;3.08;;;2.90;;
40675;SDS011;26359;48.750;9.314;2023-03-14T01:58:18;3.28;;;3.00;;
40675;SDS011;26359;48.750;9.314;2023-03-14T02:00:45;2.33;;;2.22;;
40675;SDS011;26359;48.750;9.314;2023-03-14T02:03:12;2.70;;;2.50;;
40675;SDS011;26359;48.750;9.314;2023-03-14T02:05:41;1.85;;;1.75;;
40675;SDS011;26359;48.750;9.314;2023-03-14T02:08:08;1.23;;;1.17;;
40675;SDS011;26359;48.750;9.314;2023-03-14T02:10:39;1.63;;;1.52;;
40675;SDS011;26359;48.750;9.314;2023-03-14T02:13:08;1.92;;;1.50;;
40675;SDS011;26359;48.750;9.314;2023-03-14T02:15:35;1.98;;;1.80;;
40675;SDS011;26359;48.750;9.314;2023-03-14T02:18:01;1.35;;;1.20;;
40675;SDS011;26359;48.750;9.314;2023-03-14T02:20:31;4.10;;;3.80;;
40675;SDS011;26359;48.750;9.314;2023-03-14T02:28:06;1.67;;;1.58;;
40675;SDS011;26359;48.750;9.314;2023-03-14T02:30:32;1.17;;;1.17;;
40675;SDS011;26359;48.750;9.314;2023-03-14T02:33:01;2.35;;;1.48;;
40675;SDS011;26359;48.750;9.314;2023-03-14T02:35:38;1.50;;;1.40;;
40675;SDS011;26359;48.750;9.314;2023-03-14T02:38:24;3.05;;;2.83;;
40675;SDS011;26359;48.750;9.314;2023-03-14T02:41:00;2.08;;;1.95;;
40675;SDS011;26359;48.750;9.314;2023-03-14T02:43:26;4.07;;;3.88;;
40675;SDS011;26359;48.750;9.314;2023-03-14T02:45:52;4.55;;;4.35;;
40675;SDS011;26359;48.750;9.314;2023-03-14T02:48:22;2.92;;;2.83;;
40675;SDS011;26359;48.750;9.314;2023-03-14T02:50:53;2.80;;;2.70;;
40675;SDS011;26359;48.750;9.314;2023-03-14T02:53:21;2.90;;;2.72;;
40675;SDS011;26359;48.750;9.314;2023-03-14T02:55:51;6.28;;;5.97;;
40675;SDS011;26359;48.750;9.314;2023-03-14T02:58:17;4.35;;;4.15;;
40675;SDS011;26359;48.750;9.314;2023-03-14T03:00:44;3.38;;;3.28;;
40675;SDS011;26359;48.750;9.314;2023-03-14T03:03:10;7.50;;;7.10;;
40675;SDS011;26359;48.750;9.314;2023-03-14T03:05:36;4.53;;;4.32;;
40675;SDS011;26359;48.750;9.314;2023-03-14T03:08:01;6.22;;;5.93;;
40675;SDS011;26359;48.750;9.314;2023-03-14T03:10:27;4.28;;;4.07;;
40675;SDS011;26359;48.750;9.314;2023-03-14T03:12:53;2.25;;;2.05;;
40675;SDS011;26359;48.750;9.314;2023-03-14T03:15:19;1.90;;;1.80;;
40675;SDS011;26359;48.750;9.314;2023-03-14T03:17:45;4.72;;;4.53;;
40675;SDS011;26359;48.750;9.314;2023-03-14T03:20:10;6.85;;;6.53;;
40675;SDS011;26359;48.750;9.314;2023-03-14T03:22:37;4.90;;;4.60;;
40675;SDS011;26359;48.750;9.314;2023-03-14T03:25:04;5.20;;;4.97;;
40675;SDS011;26359;48.750;9.314;2023-03-14T03:27:31;4.00;;;3.80;;
40675;SDS011;26359;48.750;9.314;2023-03-14T03:29:58;2.22;;;2.13;;
40675;SDS011;26359;48.750;9.314;2023-03-14T03:32:24;2.63;;;2.28;;
40675;SDS011;26359;48.750;9.314;2023-03-14T03:34:51;2.08;;;1.98;;
40675;SDS011;26359;48.750;9.314;2023-03-14T03:37:16;2.42;;;2.30;;
40675;SDS011;26359;48.750;9.314;2023-03-14T03:39:42;2.78;;;2.25;;
40675;SDS011;26359;48.750;9.314;2023-03-14T03:42:08;2.10;;;2.00;;
40675;SDS011;26359;48.750;9.314;2023-03-14T03:44:33;2.58;;;2.47;;
40675;SDS011;26359;48.750;9.314;2023-03-14T03:46:59;3.42;;;2.63;;
40675;SDS011;26359;48.750;9.314;2023-03-14T03:49:28;3.72;;;3.45;;
40675;SDS011;26359;48.750;9.314;2023-03-14T03:51:56;2.67;;;2.42;;
40675;SDS011;26359;48.750;9.314;2023-03-14T03:54:22;3.60;;;3.25;;
40675;SDS011;26359;48.750;9.314;2023-03-14T03:56:48;4.75;;;4.45;;
40675;SDS011;26359;48.750;9.314;2023-03-14T03:59:13;5.60;;;5.10;;
40675;SDS011;26359;48.750;9.314;2023-03-14T04:01:39;5.43;;;4.90;;
40675;SDS011;26359;48.750;9.314;2023-03-14T04:04:04;6.10;;;5.60;;
40675;SDS011;26359;48.750;9.314;2023-03-14T04:06:30;5.32;;;5.07;;
40675;SDS011;26359;48.750;9.314;2023-03-14T04:08:56;4.50;;;4.18;;
40675;SDS011;26359;48.750;9.314;2023-03-14T04:11:21;5.40;;;4.15;;
40675;SDS011;26359;48.750;9.314;2023-03-14T04:13:47;4.10;;;3.80;;
40675;SDS011;26359;48.750;9.314;2023-03-14T04:16:14;3.97;;;3.35;;
40675;SDS011;26359;48.750;9.314;2023-03-14T04:18:43;8.57;;;8.00;;
40675;SDS011;26359;48.750;9.314;2023-03-14T04:21:09;4.15;;;3.75;;
40675;SDS011;26359;48.750;9.314;2023-03-14T04:23:34;5.60;;;4.18;;
40675;SDS011;26359;48.750;9.314;2023-03-14T04:26:00;5.60;;;5.18;;
40675;SDS011;26359;48.750;9.314;2023-03-14T04:28:25;5.30;;;4.90;;
40675;SDS011;26359;48.750;9.314;2023-03-14T04:30:51;9.15;;;8.45;;
40675;SDS011;26359;48.750;9.314;2023-03-14T04:33:16;6.85;;;6.38;;
40675;SDS011;26359;48.750;9.314;2023-03-14T04:35:45;8.73;;;8.13;;
40675;SDS011;26359;48.750;9.314;2023-03-14T04:38:12;5.05;;;4.63;;
40675;SDS011;26359;48.750;9.314;2023-03-14T04:40:38;2.42;;;2.28;;
40675;SDS011;26359;48.750;9.314;2023-03-14T04:43:05;2.72;;;2.53;;
40675;SDS011;26359;48.750;9.314;2023-03-14T04:45:31;2.75;;;2.38;;
40675;SDS011;26359;48.750;9.314;2023-03-14T04:47:56;3.55;;;3.25;;
40675;SDS011;26359;48.750;9.314;2023-03-14T04:50:22;3.33;;;3.13;;
40675;SDS011;26359;48.750;9.314;2023-03-14T04:52:47;3.78;;;2.42;;
40675;SDS011;26359;48.750;9.314;2023-03-14T04:55:13;3.10;;;2.30;;
40675;SDS011;26359;48.750;9.314;2023-03-14T04:57:39;2.95;;;2.17;;
40675;SDS011;26359;48.750;9.314;2023-03-14T05:00:05;5.07;;;4.68;;
40675;SDS011;26359;48.750;9.314;2023-03-14T05:02:32;2.85;;;2.25;;
40675;SDS011;26359;48.750;9.314;2023-03-14T05:04:58;2.50;;;2.40;;
40675;SDS011;26359;48.750;9.314;2023-03-14T05:07:23;3.38;;;3.17;;
40675;SDS011;26359;48.750;9.314;2023-03-14T05:09:49;3.25;;;3.00;;
40675;SDS011;26359;48.750;9.314;2023-03-14T05:12:14;3.20;;;2.90;;
40675;SDS011;26359;48.750;9.314;2023-03-14T05:14:40;3.30;;;2.65;;
40675;SDS011;26359;48.750;9.314;2023-03-14T05:17:05;3.97;;;3.67;;
40675;SDS011;26359;48.750;9.314;2023-03-14T05:19:31;4.32;;;2.58;;
40675;SDS011;26359;48.750;9.314;2023-03-14T05:21:57;3.13;;;2.35;;
40675;SDS011;26359;48.750;9.314;2023-03-14T05:24:22;4.07;;;2.88;;
40675;SDS011;26359;48.750;9.314;2023-03-14T05:26:48;2.45;;;2.03;;
40675;SDS011;26359;48.750;9.314;2023-03-14T05:29:14;3.65;;;3.28;;
40675;SDS011;26359;48.750;9.314;2023-03-14T05:31:39;6.35;;;4.43;;
40675;SDS011;26359;48.750;9.314;2023-03-14T05:34:05;5.53;;;4.68;;
40675;SDS011;26359;48.750;9.314;2023-03-14T05:36:30;4.00;;;3.63;;
40675;SDS011;26359;48.750;9.314;2023-03-14T05:38:56;5.95;;;5.18;;
40675;SDS011;26359;48.750;9.314;2023-03-14T05:41:21;4.35;;;4.00;;
40675;SDS011;26359;48.750;9.314;2023-03-14T05:43:47;4.82;;;3.00;;
40675;SDS011;26359;48.750;9.314;2023-03-14T05:46:12;5.40;;;2.70;;
40675;SDS011;26359;48.750;9.314;2023-03-14T05:48:38;6.50;;;3.00;;
40675;SDS011;26359;48.750;9.314;2023-03-14T05:51:03;5.32;;;2.90;;
40675;SDS011;26359;48.750;9.314;2023-03-14T05:53:29;5.68;;;3.33;;
40675;SDS011;26359;48.750;9.314;2023-03-14T05:55:55;3.58;;;2.35;;
40675;SDS011;26359;48.750;9.314;2023-03-14T05:58:21;6.22;;;2.65;;
40675;SDS011;26359;48.750;9.314;2023-03-14T06:00:47;3.03;;;2.83;;
40675;SDS011;26359;48.750;9.314;2023-03-14T06:03:12;5.43;;;2.97;;
40675;SDS011;26359;48.750;9.314;2023-03-14T06:05:38;3.28;;;2.85;;
40675;SDS011;26359;48.750;9.314;2023-03-14T06:08:04;4.60;;;4.28;;
40675;SDS011;26359;48.750;9.314;2023-03-14T06:10:30;3.95;;;3.47;;
40675;SDS011;26359;48.750;9.314;2023-03-14T06:12:55;4.28;;;3.65;;
40675;SDS011;26359;48.750;9.314;2023-03-14T06:15:21;5.82;;;5.32;;
40675;SDS011;26359;48.750;9.314;2023-03-14T06:17:47;5.53;;;5.20;;
40675;SDS011;26359;48.750;9.314;2023-03-14T06:20:12;4.70;;;3.97;;
40675;SDS011;26359;48.750;9.314;2023-03-14T06:22:38;5.60;;;5.13;;
40675;SDS011;26359;48.750;9.314;2023-03-14T06:25:05;5.90;;;5.32;;
40675;SDS011;26359;48.750;9.314;2023-03-14T06:27:31;4.35;;;3.88;;
40675;SDS011;26359;48.750;9.314;2023-03-14T06:29:57;9.45;;;5.57;;
40675;SDS011;26359;48.750;9.314;2023-03-14T06:32:22;4.65;;;3.80;;
40675;SDS011;26359;48.750;9.314;2023-03-14T06:34:48;9.15;;;8.40;;
40675;SDS011;26359;48.750;9.314;2023-03-14T06:37:14;7.10;;;6.40;;
40675;SDS011;26359;48.750;9.314;2023-03-14T06:39:39;10.05;;;9.27;;
40675;SDS011;26359;48.750;9.314;2023-03-14T06:42:05;8.20;;;7.50;;
40675;SDS011;26359;48.750;9.314;2023-03-14T06:44:31;10.90;;;10.20;;
40675;SDS011;26359;48.750;9.314;2023-03-14T06:46:56;8.50;;;6.22;;
40675;SDS011;26359;48.750;9.314;2023-03-14T06:49:22;6.57;;;6.10;;
40675;SDS011;26359;48.750;9.314;2023-03-14T06:51:47;8.93;;;8.10;;
40675;SDS011;26359;48.750;9.314;2023-03-14T06:54:13;11.95;;;11.15;;
40675;SDS011;26359;48.750;9.314;2023-03-14T06:56:38;7.43;;;6.75;;
40675;SDS011;26359;48.750;9.314;2023-03-14T06:59:04;7.20;;;6.00;;
40675;SDS011;26359;48.750;9.314;2023-03-14T07:01:30;6.65;;;5.88;;
40675;SDS011;26359;48.750;9.314;2023-03-14T07:03:57;5.30;;;4.68;;
40675;SDS011;26359;48.750;9.314;2023-03-14T07:06:23;6.28;;;4.72;;
40675;SDS011;26359;48.750;9.314;2023-03-14T07:08:49;5.10;;;4.68;;
40675;SDS011;26359;48.750;9.314;2023-03-14T07:11:14;5.85;;;4.53;;
40675;SDS011;26359;48.750;9.314;2023-03-14T07:13:40;5.68;;;5.18;;
40675;SDS011;26359;48.750;9.314;2023-03-14T07:16:06;6.97;;;4.68;;
40675;SDS011;26359;48.750;9.314;2023-03-14T07:18:32;7.07;;;4.00;;
40675;SDS011;26359;48.750;9.314;2023-03-14T07:20:58;7.47;;;4.32;;
40675;SDS011;26359;48.750;9.314;2023-03-14T07:23:23;6.65;;;4.35;;
40675;SDS011;26359;48.750;9.314;2023-03-14T07:25:49;7.57;;;5.05;;
40675;SDS011;26359;48.750;9.314;2023-03-14T07:28:16;7.72;;;5.97;;
40675;SDS011;26359;48.750;9.314;2023-03-14T07:30:41;5.07;;;4.57;;
40675;SDS011;26359;48.750;9.314;2023-03-14T07:33:07;5.28;;;4.57;;
40675;SDS011;26359;48.750;9.314;2023-03-14T07:35:33;5.43;;;4.78;;
40675;SDS011;26359;48.750;9.314;2023-03-14T07:37:58;5.10;;;3.85;;
40675;SDS011;26359;48.750;9.314;2023-03-14T07:40:24;4.35;;;3.85;;
40675;SDS011;26359;48.750;9.314;2023-03-14T07:42:49;3.80;;;3.15;;
40675;SDS011;26359;48.750;9.314;2023-03-14T07:45:15;3.92;;;3.58;;
40675;SDS011;26359;48.750;9.314;2023-03-14T07:47:41;4.40;;;3.85;;
40675;SDS011;26359;48.750;9.314;2023-03-14T07:50:06;4.68;;;4.38;;
40675;SDS011;26359;48.750;9.314;2023-03-14T07:52:33;6.90;;;6.40;;
40675;SDS011;26359;48.750;9.314;2023-03-14T07:54:58;6.72;;;6.32;;
40675;SDS011;26359;48.750;9.314;2023-03-14T07:57:24;6.72;;;6.32;;
40675;SDS011;26359;48.750;9.314;2023-03-14T07:59:49;6.70;;;6.22;;
40675;SDS011;26359;48.750;9.314;2023-03-14T08:02:15;9.52;;;6.82;;
40675;SDS011;26359;48.750;9.314;2023-03-14T08:04:41;4.78;;;3.83;;
40675;SDS011;26359;48.750;9.314;2023-03-14T08:07:07;5.63;;;5.15;;
40675;SDS011;26359;48.750;9.314;2023-03-14T08:09:32;5.95;;;5.38;;
40675;SDS011;26359;48.750;9.314;2023-03-14T08:11:58;8.52;;;5.93;;
40675;SDS011;26359;48.750;9.314;2023-03-14T08:14:24;5.32;;;5.00;;
40675;SDS011;26359;48.750;9.314;2023-03-14T08:16:50;5.80;;;5.30;;
40675;SDS011;26359;48.750;9.314;2023-03-14T08:19:16;6.57;;;6.28;;
40675;SDS011;26359;48.750;9.314;2023-03-14T08:21:41;8.15;;;6.90;;
40675;SDS011;26359;48.750;9.314;2023-03-14T08:24:07;5.70;;;5.18;;
40675;SDS011;26359;48.750;9.314;2023-03-14T08:26:33;3.25;;;3.05;;
40675;SDS011;26359;48.750;9.314;2023-03-14T08:28:59;3.58;;;3.28;;
40675;SDS011;26359;48.750;9.314;2023-03-14T08:31:24;4.60;;;4.20;;
40675;SDS011;26359;48.750;9.314;2023-03-14T08:33:50;3.83;;;3.45;;
40675;SDS011;26359;48.750;9.314;2023-03-14T08:36:17;3.72;;;3.42;;
40675;SDS011;26359;48.750;9.314;2023-03-14T08:38:43;4.45;;;3.33;;
40675;SDS011;26359;48.750;9.314;2023-03-14T08:41:09;7.25;;;6.72;;
40675;SDS011;26359;48.750;9.314;2023-03-14T08:43:35;6.75;;;6.18;;
40675;SDS011;26359;48.750;9.314;2023-03-14T08:46:01;5.32;;;4.18;;
40675;SDS011;26359;48.750;9.314;2023-03-14T08:48:27;6.38;;;5.28;;
40675;SDS011;26359;48.750;9.314;2023-03-14T08:50:55;6.72;;;6.43;;
40675;SDS011;26359;48.750;9.314;2023-03-14T08:53:21;6.43;;;6.13;;
40675;SDS011;26359;48.750;9.314;2023-03-14T08:55:50;5.05;;;3.85;;
40675;SDS011;26359;48.750;9.314;2023-03-14T08:58:18;3.17;;;2.97;;
40675;SDS011;26359;48.750;9.314;2023-03-14T09:00:43;6.18;;;5.78;;
40675;SDS011;26359;48.750;9.314;2023-03-14T09:03:09;6.38;;;5.97;;
40675;SDS011;26359;48.750;9.314;2023-03-14T09:05:34;5.30;;;5.00;;
40675;SDS011;26359;48.750;9.314;2023-03-14T09:08:00;5.40;;;5.10;;
40675;SDS011;26359;48.750;9.314;2023-03-14T09:10:26;3.83;;;3.53;;
40675;SDS011;26359;48.750;9.314;2023-03-14T09:12:51;4.47;;;3.40;;
40675;SDS011;26359;48.750;9.314;2023-03-14T09:15:17;5.65;;;5.13;;
40675;SDS011;26359;48.750;9.314;2023-03-14T09:17:43;4.20;;;2.85;;
40675;SDS011;26359;48.750;9.314;2023-03-14T09:20:09;3.05;;;2.85;;
40675;SDS011;26359;48.750;9.314;2023-03-14T09:22:35;2.95;;;2.85;;
40675;SDS011;26359;48.750;9.314;2023-03-14T09:25:02;2.67;;;2.55;;
40675;SDS011;26359;48.750;9.314;2023-03-14T09:27:28;2.80;;;2.45;;
40675;SDS011;26359;48.750;9.314;2023-03-14T09:29:53;2.38;;;2.28;;
40675;SDS011;26359;48.750;9.314;2023-03-14T09:32:19;2.42;;;2.30;;
40675;SDS011;26359;48.750;9.314;2023-03-14T09:34:44;2.67;;;2.50;;
40675;SDS011;26359;48.750;9.314;2023-03-14T09:37:10;2.83;;;2.63;;
40675;SDS011;26359;48.750;9.314;2023-03-14T09:39:36;2.63;;;2.40;;
40675;SDS011;26359;48.750;9.314;2023-03-14T09:42:02;2.88;;;2.67;;
40675;SDS011;26359;48.750;9.314;2023-03-14T09:44:32;2.65;;;2.40;;
40675;SDS011;26359;48.750;9.314;2023-03-14T09:47:04;3.20;;;3.03;;
40675;SDS011;26359;48.750;9.314;2023-03-14T09:49:41;3.65;;;3.55;;
40675;SDS011;26359;48.750;9.314;2023-03-14T09:52:24;5.32;;;3.72;;
40675;SDS011;26359;48.750;9.314;2023-03-14T09:55:05;3.80;;;3.50;;
40675;SDS011;26359;48.750;9.314;2023-03-14T09:57:35;4.75;;;4.35;;
40675;SDS011;26359;48.750;9.314;2023-03-14T10:00:13;4.22;;;3.97;;
40675;SDS011;26359;48.750;9.314;2023-03-14T10:02:55;5.13;;;4.88;;
40675;SDS011;26359;48.750;9.314;2023-03-14T10:05:25;3.67;;;3.45;;
40675;SDS011;26359;48.750;9.314;2023-03-14T10:07:53;5.13;;;4.70;;
40675;SDS011;26359;48.750;9.314;2023-03-14T10:10:22;6.53;;;6.00;;
40675;SDS011;26359;48.750;9.314;2023-03-14T10:12:56;5.47;;;5.18;;
40675;SDS011;26359;48.750;9.314;2023-03-14T10:15:34;5.53;;;5.22;;
40675;SDS011;26359;48.750;9.314;2023-03-14T10:18:02;7.93;;;7.53;;
40675;SDS011;26359;48.750;9.314;2023-03-14T10:20:33;6.38;;;6.07;;
40675;SDS011;26359;48.750;9.314;2023-03-14T10:23:07;4.72;;;4.45;;
40675;SDS011;26359;48.750;9.314;2023-03-14T10:25:46;3.92;;;3.72;;
40675;SDS011;26359;48.750;9.314;2023-03-14T10:28:31;4.60;;;4.40;;
40675;SDS011;26359;48.750;9.314;2023-03-14T10:31:02;6.88;;;6.43;;
40675;SDS011;26359;48.750;9.314;2023-03-14T10:33:28;5.30;;;5.07;;
40675;SDS011;26359;48.750;9.314;2023-03-14T10:38:44;5.82;;;5.53;;
40675;SDS011;26359;48.750;9.314;2023-03-14T10:41:16;9.77;;;9.23;;
40675;SDS011;26359;48.750;9.314;2023-03-14T10:43:56;9.68;;;9.18;;
40675;SDS011;26359;48.750;9.314;2023-03-14T10:46:24;10.82;;;10.23;;
40675;SDS011;26359;48.750;9.314;2023-03-14T10:48:52;5.93;;;5.65;;
40675;SDS011;26359;48.750;9.314;2023-03-14T10:51:22;5.07;;;4.88;;
40675;SDS011;26359;48.750;9.314;2023-03-14T10:53:58;4.03;;;3.72;;
40675;SDS011;26359;48.750;9.314;2023-03-14T10:56:26;5.03;;;4.80;;
40675;SDS011;26359;48.750;9.314;2023-03-14T10:58:57;6.45;;;6.07;;
40675;SDS011;26359;48.750;9.314;2023-03-14T11:01:26;3.50;;;3.30;;
40675;SDS011;26359;48.750;9.314;2023-03-14T11:12:23;6.78;;;6.47;;
40675;SDS011;26359;48.750;9.314;2023-03-14T11:15:24;4.00;;;3.80;;
40675;SDS011;26359;48.750;9.314;2023-03-14T11:18:16;3.30;;;3.10;;
40675;SDS011;26359;48.750;9.314;2023-03-14T11:24:04;3.80;;;3.50;;
40675;SDS011;26359;48.750;9.314;2023-03-14T11:31:43;2.53;;;2.20;;
40675;SDS011;26359;48.750;9.314;2023-03-14T11:34:17;5.53;;;5.22;;
40675;SDS011;26359;48.750;9.314;2023-03-14T11:39:23;3.70;;;3.47;;
40675;SDS011;26359;48.750;9.314;2023-03-14T11:42:00;3.85;;;3.65;;
40675;SDS011;26359;48.750;9.314;2023-03-14T11:44:27;3.70;;;3.50;;
40675;SDS011;26359;48.750;9.314;2023-03-14T11:47:21;3.50;;;3.30;;
40675;SDS011;26359;48.750;9.314;2023-03-14T11:49:58;9.68;;;9.27;;
40675;SDS011;26359;48.750;9.314;2023-03-14T11:52:50;10.23;;;9.75;;
40675;SDS011;26359;48.750;9.314;2023-03-14T11:55:25;7.07;;;6.57;;
40675;SDS011;26359;48.750;9.314;2023-03-14T11:58:25;2.40;;;2.30;;
40675;SDS011;26359;48.750;9.314;2023-03-14T12:00:54;2.90;;;2.70;;
40675;SDS011;26359;48.750;9.314;2023-03-14T12:03:42;2.75;;;2.55;;
40675;SDS011;26359;48.750;9.314;2023-03-14T12:09:15;2.85;;;2.75;;
40675;SDS011;26359;48.750;9.314;2023-03-14T12:11:47;2.40;;;2.30;;
40675;SDS011;26359;48.750;9.314;2023-03-14T12:16:54;2.47;;;2.38;;
40675;SDS011;26359;48.750;9.314;2023-03-14T12:19:33;3.35;;;3.25;;
40675;SDS011;26359;48.750;9.314;2023-03-14T12:24:44;2.50;;;2.30;;
40675;SDS011;26359;48.750;9.314;2023-03-14T12:27:13;2.85;;;2.75;;
40675;SDS011;26359;48.750;9.314;2023-03-14T12:30:15;3.17;;;3.08;;
40675;SDS011;26359;48.750;9.314;2023-03-14T12:35:49;8.32;;;7.93;;
40675;SDS011;26359;48.750;9.314;2023-03-14T12:40:57;2.88;;;2.78;;
40675;SDS011;26359;48.750;9.314;2023-03-14T12:43:29;5.22;;;4.90;;
40675;SDS011;26359;48.750;9.314;2023-03-14T12:48:45;3.80;;;3.50;;
40675;SDS011;26359;48.750;9.314;2023-03-14T12:51:13;3.20;;;3.10;;
40675;SDS011;26359;48.750;9.314;2023-03-14T12:56:20;3.30;;;3.10;;
40675;SDS011;26359;48.750;9.314;2023-03-14T13:04:43;5.95;;;5.65;;
40675;SDS011;26359;48.750;9.314;2023-03-14T13:07:13;2.72;;;2.63;;
40675;SDS011;26359;48.750;9.314;2023-03-14T13:12:23;8.63;;;8.23;;
40675;SDS011;26359;48.750;9.314;2023-03-14T13:14:57;3.45;;;3.25;;
40675;SDS011;26359;48.750;9.314;2023-03-14T13:17:26;3.83;;;3.50;;
40675;SDS011;26359;48.750;9.314;2023-03-14T13:19:54;4.72;;;4.28;;
40675;SDS011;26359;48.750;9.314;2023-03-14T13:22:27;3.40;;;3.25;;
40675;SDS011;26359;48.750;9.314;2023-03-14T13:24:59;3.38;;;3.17;;
40675;SDS011;26359;48.750;9.314;2023-03-14T13:27:32;5.40;;;3.10;;
40675;SDS011;26359;48.750;9.314;2023-03-14T13:30:04;9.02;;;8.48;;
40675;SDS011;26359;48.750;9.314;2023-03-14T13:32:40;5.97;;;4.43;;
40675;SDS011;26359;48.750;9.314;2023-03-14T13:35:17;5.90;;;5.40;;
40675;SDS011;26359;48.750;9.314;2023-03-14T13:38:20;6.50;;;6.13;;
40675;SDS011;26359;48.750;9.314;2023-03-14T13:40:48;6.63;;;6.00;;
40675;SDS011;26359;48.750;9.314;2023-03-14T13:43:16;7.72;;;7.38;;
40675;SDS011;26359;48.750;9.314;2023-03-14T13:45:50;4.70;;;4.30;;
40675;SDS011;26359;48.750;9.314;2023-03-14T13:48:21;5.40;;;3.70;;
40675;SDS011;26359;48.750;9.314;2023-03-14T13:50:51;4.75;;;4.45;;
40675;SDS011;26359;48.750;9.314;2023-03-14T13:53:19;4.40;;;4.18;;
40675;SDS011;26359;48.750;9.314;2023-03-14T13:55:45;3.05;;;2.85;;
40675;SDS011;26359;48.750;9.314;2023-03-14T13:58:12;5.63;;;5.35;;
40675;SDS011;26359;48.750;9.314;2023-03-14T14:00:53;4.57;;;4.20;;
40675;SDS011;26359;48.750;9.314;2023-03-14T14:03:20;3.83;;;3.60;;
40675;SDS011;26359;48.750;9.314;2023-03-14T14:05:47;4.38;;;4.07;;
40675;SDS011;26359;48.750;9.314;2023-03-14T14:08:13;4.97;;;3.42;;
40675;SDS011;26359;48.750;9.314;2023-03-14T14:10:38;6.50;;;6.05;;
40675;SDS011;26359;48.750;9.314;2023-03-14T14:13:06;4.47;;;3.88;;
40675;SDS011;26359;48.750;9.314;2023-03-14T14:15:39;4.40;;;4.03;;
40675;SDS011;26359;48.750;9.314;2023-03-14T14:18:08;4.20;;;3.90;;
40675;SDS011;26359;48.750;9.314;2023-03-14T14:20:39;3.50;;;3.30;;
40675;SDS011;26359;48.750;9.314;2023-03-14T14:23:10;4.07;;;3.78;;
40675;SDS011;26359;48.750;9.314;2023-03-14T14:25:44;3.90;;;3.63;;
40675;SDS011;26359;48.750;9.314;2023-03-14T14:28:15;3.85;;;3.50;;
40675;SDS011;26359;48.750;9.314;2023-03-14T14:31:01;2.92;;;2.65;;
40675;SDS011;26359;48.750;9.314;2023-03-14T14:33:46;4.45;;;4.05;;
40675;SDS011;26359;48.750;9.314;2023-03-14T14:36:30;4.78;;;4.47;;
40675;SDS011;26359;48.750;9.314;2023-03-14T14:39:09;5.38;;;5.10;;
40675;SDS011;26359;48.750;9.314;2023-03-14T14:41:43;4.55;;;2.80;;
40675;SDS011;26359;48.750;9.314;2023-03-14T14:44:12;3.58;;;3.28;;
40675;SDS011;26359;48.750;9.314;2023-03-14T14:46:41;3.15;;;2.92;;
40675;SDS011;26359;48.750;9.314;2023-03-14T14:49:12;6.18;;;3.63;;
40675;SDS011;26359;48.750;9.314;2023-03-14T14:51:41;4.00;;;3.67;;
40675;SDS011;26359;48.750;9.314;2023-03-14T14:54:16;4.20;;;3.33;;
40675;SDS011;26359;48.750;9.314;2023-03-14T14:56:50;5.07;;;3.33;;
40675;SDS011;26359;48.750;9.314;2023-03-14T14:59:22;4.60;;;3.40;;
40675;SDS011;26359;48.750;9.314;2023-03-14T15:01:49;3.88;;;3.40;;
40675;SDS011;26359;48.750;9.314;2023-03-14T15:04:16;3.88;;;3.40;;
40675;SDS011;26359;48.750;9.314;2023-03-14T15:06:42;4.05;;;3.05;;
40675;SDS011;26359;48.750;9.314;2023-03-14T15:09:10;5.50;;;3.22;;
40675;SDS011;26359;48.750;9.314;2023-03-14T15:11:36;3.60;;;3.28;;
40675;SDS011;26359;48.750;9.314;2023-03-14T15:14:02;3.00;;;2.72;;
40675;SDS011;26359;48.750;9.314;2023-03-14T15:16:29;5.50;;;4.88;;
40675;SDS011;26359;48.750;9.314;2023-03-14T15:18:56;5.53;;;4.78;;
40675;SDS011;26359;48.750;9.314;2023-03-14T15:21:24;5.13;;;3.45;;
40675;SDS011;26359;48.750;9.314;2023-03-14T15:23:51;7.68;;;7.07;;
40675;SDS011;26359;48.750;9.314;2023-03-14T15:26:18;10.90;;;10.18;;
40675;SDS011;26359;48.750;9.314;2023-03-14T15:28:45;5.13;;;3.63;;
40675;SDS011;26359;48.750;9.314;2023-03-14T15:31:12;3.17;;;2.97;;
40675;SDS011;26359;48.750;9.314;2023-03-14T15:33:39;4.47;;;3.13;;
40675;SDS011;26359;48.750;9.314;2023-03-14T15:38:51;3.78;;;3.42;;
40675;SDS011;26359;48.750;9.314;2023-03-14T15:41:17;5.60;;;3.22;;
40675;SDS011;26359;48.750;9.314;2023-03-14T15:43:43;4.75;;;3.08;;
40675;SDS011;26359;48.750;9.314;2023-03-14T15:46:09;5.13;;;3.00;;
40675;SDS011;26359;48.750;9.314;2023-03-14T15:48:35;6.30;;;5.88;;
40675;SDS011;26359;48.750;9.314;2023-03-14T15:51:01;3.75;;;3.28;;
40675;SDS011;26359;48.750;9.314;2023-03-14T15:53:27;5.03;;;4.00;;
40675;SDS011;26359;48.750;9.314;2023-03-14T15:55:52;5.82;;;4.10;;